Amqui, Canada
Current Conditions -  °F | °C
As of 3:00 AM on Thursday 27 Nov 2014 (Local Time) from CYYY Reporting Station
Light Snow Light Snow  
Wind Chill: 14°   Ceiling: 3200
Heat Index: 27°   Visibility: 15mi
Dew Point: 16°   Wind: 17mph
Humidity: 64%   Direction: 40°NE
Pressure: 30.04"   Gusts: 24mph
Location:  48.46°N, 67.43°W
Report Text: CYYY 270800Z 04015G21KT 15SM -SN OVC032 M03/M09 A3004 RMK SC8 SLP177
Loading
Personal Weather Stations






























Interactive Weather Map New forecast layout! Learn more

10-Day Weather Forecast

Advertisements
Track Severe Weather on mobile